sensor_id;sensor_type;location;lat;lon;timestamp;P1;durP1;ratioP1;P2;durP2;ratioP2
57395;SDS011;43222;52.912;6.940;2023-07-22T00:00:47;15.65;;;7.75;;
57395;SDS011;43222;52.912;6.940;2023-07-22T00:03:13;13.80;;;7.20;;
57395;SDS011;43222;52.912;6.940;2023-07-22T00:05:40;12.65;;;7.15;;
57395;SDS011;43222;52.912;6.940;2023-07-22T00:08:06;15.15;;;8.25;;
57395;SDS011;43222;52.912;6.940;2023-07-22T00:10:32;13.27;;;7.78;;
57395;SDS011;43222;52.912;6.940;2023-07-22T00:12:58;15.30;;;7.68;;
57395;SDS011;43222;52.912;6.940;2023-07-22T00:15:24;13.32;;;7.40;;
57395;SDS011;43222;52.912;6.940;2023-07-22T00:17:50;13.32;;;7.43;;
57395;SDS011;43222;52.912;6.940;2023-07-22T00:20:17;16.83;;;8.07;;
57395;SDS011;43222;52.912;6.940;2023-07-22T00:22:44;15.25;;;7.60;;
57395;SDS011;43222;52.912;6.940;2023-07-22T00:25:11;12.95;;;7.43;;
57395;SDS011;43222;52.912;6.940;2023-07-22T00:27:38;16.67;;;7.55;;
57395;SDS011;43222;52.912;6.940;2023-07-22T00:30:05;13.63;;;7.85;;
57395;SDS011;43222;52.912;6.940;2023-07-22T00:32:31;15.90;;;7.80;;
57395;SDS011;43222;52.912;6.940;2023-07-22T00:34:58;15.48;;;8.32;;
57395;SDS011;43222;52.912;6.940;2023-07-22T00:37:24;15.15;;;7.82;;
57395;SDS011;43222;52.912;6.940;2023-07-22T00:39:50;13.82;;;8.40;;
57395;SDS011;43222;52.912;6.940;2023-07-22T00:42:16;15.30;;;8.02;;
57395;SDS011;43222;52.912;6.940;2023-07-22T00:44:42;12.30;;;7.70;;
57395;SDS011;43222;52.912;6.940;2023-07-22T00:47:08;15.35;;;8.20;;
57395;SDS011;43222;52.912;6.940;2023-07-22T00:49:35;13.73;;;7.93;;
57395;SDS011;43222;52.912;6.940;2023-07-22T00:52:02;13.82;;;8.45;;
57395;SDS011;43222;52.912;6.940;2023-07-22T00:54:28;14.60;;;7.32;;
57395;SDS011;43222;52.912;6.940;2023-07-22T00:56:56;15.00;;;7.93;;
57395;SDS011;43222;52.912;6.940;2023-07-22T00:59:22;14.40;;;8.35;;
57395;SDS011;43222;52.912;6.940;2023-07-22T01:01:49;14.88;;;8.23;;
57395;SDS011;43222;52.912;6.940;2023-07-22T01:04:15;16.65;;;9.18;;
57395;SDS011;43222;52.912;6.940;2023-07-22T01:06:44;15.77;;;8.48;;
57395;SDS011;43222;52.912;6.940;2023-07-22T01:09:11;17.50;;;8.80;;
57395;SDS011;43222;52.912;6.940;2023-07-22T01:11:38;13.98;;;8.95;;
57395;SDS011;43222;52.912;6.940;2023-07-22T01:14:04;17.00;;;8.30;;
57395;SDS011;43222;52.912;6.940;2023-07-22T01:16:30;12.98;;;8.50;;
57395;SDS011;43222;52.912;6.940;2023-07-22T01:18:56;16.45;;;8.95;;
57395;SDS011;43222;52.912;6.940;2023-07-22T01:21:23;17.40;;;9.57;;
57395;SDS011;43222;52.912;6.940;2023-07-22T01:23:50;18.05;;;8.98;;
57395;SDS011;43222;52.912;6.940;2023-07-22T01:26:18;15.75;;;8.52;;
57395;SDS011;43222;52.912;6.940;2023-07-22T01:28:44;16.63;;;9.10;;
57395;SDS011;43222;52.912;6.940;2023-07-22T01:31:10;14.27;;;8.70;;
57395;SDS011;43222;52.912;6.940;2023-07-22T01:33:36;15.95;;;9.10;;
57395;SDS011;43222;52.912;6.940;2023-07-22T01:36:03;17.02;;;9.20;;
57395;SDS011;43222;52.912;6.940;2023-07-22T01:38:29;13.95;;;8.70;;
57395;SDS011;43222;52.912;6.940;2023-07-22T01:40:56;16.50;;;9.20;;
57395;SDS011;43222;52.912;6.940;2023-07-22T01:43:22;15.30;;;8.38;;
57395;SDS011;43222;52.912;6.940;2023-07-22T01:45:49;16.52;;;8.93;;
57395;SDS011;43222;52.912;6.940;2023-07-22T01:48:15;15.52;;;9.05;;
57395;SDS011;43222;52.912;6.940;2023-07-22T01:50:41;16.75;;;9.30;;
57395;SDS011;43222;52.912;6.940;2023-07-22T01:53:07;17.35;;;8.68;;
57395;SDS011;43222;52.912;6.940;2023-07-22T01:55:33;17.60;;;9.82;;
57395;SDS011;43222;52.912;6.940;2023-07-22T01:58:00;15.73;;;8.82;;
57395;SDS011;43222;52.912;6.940;2023-07-22T02:00:26;15.75;;;9.00;;
57395;SDS011;43222;52.912;6.940;2023-07-22T02:02:53;15.90;;;9.30;;
57395;SDS011;43222;52.912;6.940;2023-07-22T02:05:19;15.43;;;9.13;;
57395;SDS011;43222;52.912;6.940;2023-07-22T02:07:46;20.05;;;10.43;;
57395;SDS011;43222;52.912;6.940;2023-07-22T02:10:12;16.17;;;9.65;;
57395;SDS011;43222;52.912;6.940;2023-07-22T02:12:38;15.23;;;9.57;;
57395;SDS011;43222;52.912;6.940;2023-07-22T02:15:04;18.33;;;10.20;;
57395;SDS011;43222;52.912;6.940;2023-07-22T02:17:31;16.80;;;9.38;;
57395;SDS011;43222;52.912;6.940;2023-07-22T02:19:57;15.82;;;10.05;;
57395;SDS011;43222;52.912;6.940;2023-07-22T02:22:23;16.75;;;9.45;;
57395;SDS011;43222;52.912;6.940;2023-07-22T02:24:49;16.23;;;9.15;;
57395;SDS011;43222;52.912;6.940;2023-07-22T02:27:15;15.07;;;8.55;;
57395;SDS011;43222;52.912;6.940;2023-07-22T02:29:41;13.85;;;8.93;;
57395;SDS011;43222;52.912;6.940;2023-07-22T02:32:08;18.38;;;10.10;;
57395;SDS011;43222;52.912;6.940;2023-07-22T02:34:34;16.35;;;9.00;;
57395;SDS011;43222;52.912;6.940;2023-07-22T02:37:00;18.27;;;10.25;;
57395;SDS011;43222;52.912;6.940;2023-07-22T02:39:26;15.30;;;9.55;;
57395;SDS011;43222;52.912;6.940;2023-07-22T02:41:52;16.95;;;9.32;;
57395;SDS011;43222;52.912;6.940;2023-07-22T02:44:18;17.92;;;9.40;;
57395;SDS011;43222;52.912;6.940;2023-07-22T02:46:44;18.67;;;9.77;;
57395;SDS011;43222;52.912;6.940;2023-07-22T02:49:11;16.77;;;9.18;;
57395;SDS011;43222;52.912;6.940;2023-07-22T02:51:37;14.05;;;8.93;;
57395;SDS011;43222;52.912;6.940;2023-07-22T02:54:03;19.30;;;10.80;;
57395;SDS011;43222;52.912;6.940;2023-07-22T02:56:29;21.20;;;10.43;;
57395;SDS011;43222;52.912;6.940;2023-07-22T02:58:55;18.42;;;10.55;;
57395;SDS011;43222;52.912;6.940;2023-07-22T03:01:21;18.05;;;10.40;;
57395;SDS011;43222;52.912;6.940;2023-07-22T03:03:48;16.30;;;9.90;;
57395;SDS011;43222;52.912;6.940;2023-07-22T03:06:14;17.98;;;10.57;;
57395;SDS011;43222;52.912;6.940;2023-07-22T03:08:40;15.40;;;9.32;;
57395;SDS011;43222;52.912;6.940;2023-07-22T03:11:06;18.38;;;10.20;;
57395;SDS011;43222;52.912;6.940;2023-07-22T03:13:32;18.80;;;9.63;;
57395;SDS011;43222;52.912;6.940;2023-07-22T03:16:00;16.52;;;9.23;;
57395;SDS011;43222;52.912;6.940;2023-07-22T03:18:29;18.55;;;9.52;;
57395;SDS011;43222;52.912;6.940;2023-07-22T03:20:56;16.63;;;9.57;;
57395;SDS011;43222;52.912;6.940;2023-07-22T03:23:22;15.95;;;9.45;;
57395;SDS011;43222;52.912;6.940;2023-07-22T03:25:49;16.73;;;9.88;;
57395;SDS011;43222;52.912;6.940;2023-07-22T03:28:15;19.40;;;10.68;;
57395;SDS011;43222;52.912;6.940;2023-07-22T03:30:41;16.27;;;10.25;;
57395;SDS011;43222;52.912;6.940;2023-07-22T03:33:08;19.58;;;10.80;;
57395;SDS011;43222;52.912;6.940;2023-07-22T03:35:34;18.23;;;10.45;;
57395;SDS011;43222;52.912;6.940;2023-07-22T03:38:01;16.85;;;10.30;;
57395;SDS011;43222;52.912;6.940;2023-07-22T03:40:28;16.60;;;10.98;;
57395;SDS011;43222;52.912;6.940;2023-07-22T03:42:55;17.60;;;11.35;;
57395;SDS011;43222;52.912;6.940;2023-07-22T03:45:22;16.80;;;10.52;;
57395;SDS011;43222;52.912;6.940;2023-07-22T03:47:52;17.70;;;9.80;;
57395;SDS011;43222;52.912;6.940;2023-07-22T03:50:19;18.27;;;9.57;;
57395;SDS011;43222;52.912;6.940;2023-07-22T03:52:45;19.83;;;10.38;;
57395;SDS011;43222;52.912;6.940;2023-07-22T03:55:11;18.05;;;10.48;;
57395;SDS011;43222;52.912;6.940;2023-07-22T03:57:37;17.88;;;10.25;;
57395;SDS011;43222;52.912;6.940;2023-07-22T04:00:04;14.57;;;9.63;;
57395;SDS011;43222;52.912;6.940;2023-07-22T04:02:30;17.50;;;10.60;;
57395;SDS011;43222;52.912;6.940;2023-07-22T04:04:56;20.40;;;10.77;;
57395;SDS011;43222;52.912;6.940;2023-07-22T04:07:22;16.88;;;10.10;;
57395;SDS011;43222;52.912;6.940;2023-07-22T04:09:49;16.95;;;10.73;;
57395;SDS011;43222;52.912;6.940;2023-07-22T04:12:15;18.90;;;9.90;;
57395;SDS011;43222;52.912;6.940;2023-07-22T04:14:41;19.83;;;10.70;;
57395;SDS011;43222;52.912;6.940;2023-07-22T04:17:07;15.45;;;10.02;;
57395;SDS011;43222;52.912;6.940;2023-07-22T04:19:33;18.08;;;10.80;;
57395;SDS011;43222;52.912;6.940;2023-07-22T04:21:59;19.65;;;10.55;;
57395;SDS011;43222;52.912;6.940;2023-07-22T04:24:29;20.05;;;11.48;;
57395;SDS011;43222;52.912;6.940;2023-07-22T04:26:56;19.27;;;11.05;;
57395;SDS011;43222;52.912;6.940;2023-07-22T04:29:23;19.23;;;11.80;;
57395;SDS011;43222;52.912;6.940;2023-07-22T04:31:49;17.00;;;10.75;;
57395;SDS011;43222;52.912;6.940;2023-07-22T04:34:15;18.65;;;11.43;;
57395;SDS011;43222;52.912;6.940;2023-07-22T04:36:41;20.08;;;11.48;;
57395;SDS011;43222;52.912;6.940;2023-07-22T04:39:08;18.35;;;12.18;;
57395;SDS011;43222;52.912;6.940;2023-07-22T04:41:34;18.55;;;11.68;;
57395;SDS011;43222;52.912;6.940;2023-07-22T04:44:00;19.45;;;11.82;;
57395;SDS011;43222;52.912;6.940;2023-07-22T04:46:26;18.95;;;12.07;;
57395;SDS011;43222;52.912;6.940;2023-07-22T04:48:56;18.83;;;11.27;;
57395;SDS011;43222;52.912;6.940;2023-07-22T04:51:25;17.73;;;11.45;;
57395;SDS011;43222;52.912;6.940;2023-07-22T04:53:52;22.33;;;11.68;;
57395;SDS011;43222;52.912;6.940;2023-07-22T04:56:18;19.17;;;11.27;;
57395;SDS011;43222;52.912;6.940;2023-07-22T04:58:44;19.48;;;12.18;;
57395;SDS011;43222;52.912;6.940;2023-07-22T05:01:10;20.33;;;11.95;;
57395;SDS011;43222;52.912;6.940;2023-07-22T05:03:36;17.35;;;11.10;;
57395;SDS011;43222;52.912;6.940;2023-07-22T05:06:02;19.25;;;11.85;;
57395;SDS011;43222;52.912;6.940;2023-07-22T05:08:28;19.33;;;12.82;;
57395;SDS011;43222;52.912;6.940;2023-07-22T05:10:54;22.85;;;12.60;;
57395;SDS011;43222;52.912;6.940;2023-07-22T05:13:20;16.40;;;10.85;;
57395;SDS011;43222;52.912;6.940;2023-07-22T05:15:46;21.17;;;12.95;;
57395;SDS011;43222;52.912;6.940;2023-07-22T05:18:12;17.55;;;11.75;;
57395;SDS011;43222;52.912;6.940;2023-07-22T05:20:38;18.02;;;11.88;;
57395;SDS011;43222;52.912;6.940;2023-07-22T05:23:04;19.80;;;12.35;;
57395;SDS011;43222;52.912;6.940;2023-07-22T05:25:31;19.35;;;11.77;;
57395;SDS011;43222;52.912;6.940;2023-07-22T05:27:57;18.33;;;11.70;;
57395;SDS011;43222;52.912;6.940;2023-07-22T05:30:23;16.15;;;10.95;;
57395;SDS011;43222;52.912;6.940;2023-07-22T05:32:51;19.83;;;11.93;;
57395;SDS011;43222;52.912;6.940;2023-07-22T05:35:18;16.13;;;10.70;;
57395;SDS011;43222;52.912;6.940;2023-07-22T05:37:44;18.27;;;11.52;;
57395;SDS011;43222;52.912;6.940;2023-07-22T05:40:10;17.00;;;11.40;;
57395;SDS011;43222;52.912;6.940;2023-07-22T05:42:36;16.10;;;11.18;;
57395;SDS011;43222;52.912;6.940;2023-07-22T05:45:03;21.58;;;12.45;;
57395;SDS011;43222;52.912;6.940;2023-07-22T05:47:29;20.33;;;10.98;;
57395;SDS011;43222;52.912;6.940;2023-07-22T05:49:55;19.50;;;12.48;;
57395;SDS011;43222;52.912;6.940;2023-07-22T05:52:21;20.90;;;12.50;;
57395;SDS011;43222;52.912;6.940;2023-07-22T05:54:48;19.10;;;11.95;;
57395;SDS011;43222;52.912;6.940;2023-07-22T05:57:15;16.67;;;11.02;;
57395;SDS011;43222;52.912;6.940;2023-07-22T05:59:41;15.82;;;10.98;;
57395;SDS011;43222;52.912;6.940;2023-07-22T06:02:08;16.27;;;11.00;;
57395;SDS011;43222;52.912;6.940;2023-07-22T06:04:35;15.55;;;10.88;;
57395;SDS011;43222;52.912;6.940;2023-07-22T06:07:01;17.92;;;10.80;;
57395;SDS011;43222;52.912;6.940;2023-07-22T06:09:27;18.13;;;12.60;;
57395;SDS011;43222;52.912;6.940;2023-07-22T06:11:54;16.15;;;11.38;;
57395;SDS011;43222;52.912;6.940;2023-07-22T06:14:20;17.83;;;11.70;;
57395;SDS011;43222;52.912;6.940;2023-07-22T06:16:46;16.95;;;11.38;;
57395;SDS011;43222;52.912;6.940;2023-07-22T06:19:12;16.95;;;11.30;;
57395;SDS011;43222;52.912;6.940;2023-07-22T06:21:38;17.10;;;11.50;;
57395;SDS011;43222;52.912;6.940;2023-07-22T06:24:04;15.93;;;11.35;;
57395;SDS011;43222;52.912;6.940;2023-07-22T06:26:31;19.67;;;11.65;;
57395;SDS011;43222;52.912;6.940;2023-07-22T06:28:57;16.38;;;11.40;;
57395;SDS011;43222;52.912;6.940;2023-07-22T06:31:23;17.90;;;11.80;;
57395;SDS011;43222;52.912;6.940;2023-07-22T06:33:49;18.52;;;12.20;;
57395;SDS011;43222;52.912;6.940;2023-07-22T06:36:15;16.73;;;11.93;;
57395;SDS011;43222;52.912;6.940;2023-07-22T06:38:42;18.73;;;11.05;;
57395;SDS011;43222;52.912;6.940;2023-07-22T06:41:08;15.75;;;11.23;;
57395;SDS011;43222;52.912;6.940;2023-07-22T06:43:34;15.50;;;11.07;;
57395;SDS011;43222;52.912;6.940;2023-07-22T06:46:00;17.20;;;12.02;;
57395;SDS011;43222;52.912;6.940;2023-07-22T06:48:27;18.80;;;11.40;;
57395;SDS011;43222;52.912;6.940;2023-07-22T06:50:53;17.85;;;11.15;;
57395;SDS011;43222;52.912;6.940;2023-07-22T06:53:19;17.60;;;11.90;;
57395;SDS011;43222;52.912;6.940;2023-07-22T06:55:48;16.92;;;11.68;;
57395;SDS011;43222;52.912;6.940;2023-07-22T06:58:15;18.30;;;12.63;;
57395;SDS011;43222;52.912;6.940;2023-07-22T07:00:41;17.58;;;11.50;;
57395;SDS011;43222;52.912;6.940;2023-07-22T07:03:07;16.90;;;12.20;;
57395;SDS011;43222;52.912;6.940;2023-07-22T07:05:33;16.60;;;12.73;;
57395;SDS011;43222;52.912;6.940;2023-07-22T07:08:00;19.42;;;12.38;;
57395;SDS011;43222;52.912;6.940;2023-07-22T07:10:26;18.08;;;12.45;;
57395;SDS011;43222;52.912;6.940;2023-07-22T07:12:52;16.83;;;12.52;;
57395;SDS011;43222;52.912;6.940;2023-07-22T07:15:18;17.67;;;12.93;;
57395;SDS011;43222;52.912;6.940;2023-07-22T07:17:44;19.77;;;13.27;;
57395;SDS011;43222;52.912;6.940;2023-07-22T07:20:10;19.58;;;13.65;;
57395;SDS011;43222;52.912;6.940;2023-07-22T07:22:36;18.48;;;13.15;;
57395;SDS011;43222;52.912;6.940;2023-07-22T07:25:02;19.05;;;13.95;;
57395;SDS011;43222;52.912;6.940;2023-07-22T07:27:28;20.30;;;14.93;;
57395;SDS011;43222;52.912;6.940;2023-07-22T07:29:54;20.20;;;14.95;;
57395;SDS011;43222;52.912;6.940;2023-07-22T07:32:20;19.67;;;15.23;;
57395;SDS011;43222;52.912;6.940;2023-07-22T07:34:48;21.63;;;15.77;;
57395;SDS011;43222;52.912;6.940;2023-07-22T07:37:14;20.77;;;14.80;;
57395;SDS011;43222;52.912;6.940;2023-07-22T07:39:40;18.92;;;14.88;;
57395;SDS011;43222;52.912;6.940;2023-07-22T07:42:06;20.02;;;13.68;;
57395;SDS011;43222;52.912;6.940;2023-07-22T07:44:32;18.98;;;14.07;;
57395;SDS011;43222;52.912;6.940;2023-07-22T07:46:58;19.25;;;12.48;;
57395;SDS011;43222;52.912;6.940;2023-07-22T07:49:24;18.05;;;14.07;;
57395;SDS011;43222;52.912;6.940;2023-07-22T07:51:50;17.75;;;12.77;;
57395;SDS011;43222;52.912;6.940;2023-07-22T07:54:16;16.65;;;12.35;;
57395;SDS011;43222;52.912;6.940;2023-07-22T07:56:42;17.15;;;13.27;;
57395;SDS011;43222;52.912;6.940;2023-07-22T07:59:08;16.63;;;12.15;;
57395;SDS011;43222;52.912;6.940;2023-07-22T08:01:35;16.45;;;12.70;;
57395;SDS011;43222;52.912;6.940;2023-07-22T08:04:02;18.20;;;13.25;;
57395;SDS011;43222;52.912;6.940;2023-07-22T08:06:28;17.63;;;12.38;;
57395;SDS011;43222;52.912;6.940;2023-07-22T08:08:54;15.98;;;11.88;;
57395;SDS011;43222;52.912;6.940;2023-07-22T08:11:20;15.50;;;12.00;;
57395;SDS011;43222;52.912;6.940;2023-07-22T08:13:46;15.40;;;11.25;;
57395;SDS011;43222;52.912;6.940;2023-07-22T08:16:13;18.30;;;12.43;;
57395;SDS011;43222;52.912;6.940;2023-07-22T08:18:39;17.40;;;12.80;;
57395;SDS011;43222;52.912;6.940;2023-07-22T08:21:06;16.80;;;13.32;;
57395;SDS011;43222;52.912;6.940;2023-07-22T08:23:33;18.33;;;12.65;;
57395;SDS011;43222;52.912;6.940;2023-07-22T08:25:59;17.50;;;12.45;;
57395;SDS011;43222;52.912;6.940;2023-07-22T08:28:25;16.85;;;11.57;;
57395;SDS011;43222;52.912;6.940;2023-07-22T08:30:54;15.52;;;12.10;;
57395;SDS011;43222;52.912;6.940;2023-07-22T08:33:21;16.17;;;11.60;;
57395;SDS011;43222;52.912;6.940;2023-07-22T08:35:47;18.85;;;11.82;;
57395;SDS011;43222;52.912;6.940;2023-07-22T08:38:14;17.65;;;11.50;;
57395;SDS011;43222;52.912;6.940;2023-07-22T08:40:40;14.52;;;10.55;;
57395;SDS011;43222;52.912;6.940;2023-07-22T08:43:07;16.05;;;12.25;;
57395;SDS011;43222;52.912;6.940;2023-07-22T08:45:37;17.80;;;10.82;;
57395;SDS011;43222;52.912;6.940;2023-07-22T08:48:04;15.93;;;10.68;;
57395;SDS011;43222;52.912;6.940;2023-07-22T08:53:32;15.93;;;9.90;;
57395;SDS011;43222;52.912;6.940;2023-07-22T08:55:59;15.88;;;9.45;;
57395;SDS011;43222;52.912;6.940;2023-07-22T08:58:25;15.57;;;10.13;;
57395;SDS011;43222;52.912;6.940;2023-07-22T09:00:51;14.88;;;10.40;;
57395;SDS011;43222;52.912;6.940;2023-07-22T09:03:18;15.52;;;10.07;;
57395;SDS011;43222;52.912;6.940;2023-07-22T09:05:45;14.35;;;9.98;;
57395;SDS011;43222;52.912;6.940;2023-07-22T09:08:11;14.32;;;9.70;;
57395;SDS011;43222;52.912;6.940;2023-07-22T09:10:37;14.85;;;10.23;;
57395;SDS011;43222;52.912;6.940;2023-07-22T09:13:03;14.75;;;10.32;;
57395;SDS011;43222;52.912;6.940;2023-07-22T09:15:30;15.52;;;8.95;;
57395;SDS011;43222;52.912;6.940;2023-07-22T09:17:57;12.63;;;8.65;;
57395;SDS011;43222;52.912;6.940;2023-07-22T09:20:23;11.85;;;8.68;;
57395;SDS011;43222;52.912;6.940;2023-07-22T09:22:51;12.35;;;9.30;;
57395;SDS011;43222;52.912;6.940;2023-07-22T09:25:18;15.35;;;9.25;;
57395;SDS011;43222;52.912;6.940;2023-07-22T09:27:48;11.63;;;7.85;;
57395;SDS011;43222;52.912;6.940;2023-07-22T09:32:50;10.88;;;7.32;;
57395;SDS011;43222;52.912;6.940;2023-07-22T09:35:17;10.60;;;7.05;;
57395;SDS011;43222;52.912;6.940;2023-07-22T09:37:43;13.85;;;7.68;;
57395;SDS011;43222;52.912;6.940;2023-07-22T09:42:38;10.77;;;6.97;;
57395;SDS011;43222;52.912;6.940;2023-07-22T09:45:05;10.68;;;7.15;;
57395;SDS011;43222;52.912;6.940;2023-07-22T09:47:39;11.30;;;7.03;;
57395;SDS011;43222;52.912;6.940;2023-07-22T09:50:05;10.40;;;5.85;;
57395;SDS011;43222;52.912;6.940;2023-07-22T09:52:31;11.18;;;6.05;;
57395;SDS011;43222;52.912;6.940;2023-07-22T09:55:00;9.70;;;5.93;;
57395;SDS011;43222;52.912;6.940;2023-07-22T09:57:26;13.20;;;6.40;;
57395;SDS011;43222;52.912;6.940;2023-07-22T09:59:53;14.60;;;6.30;;
57395;SDS011;43222;52.912;6.940;2023-07-22T10:02:19;15.90;;;7.32;;
57395;SDS011;43222;52.912;6.940;2023-07-22T10:04:47;12.93;;;7.13;;
57395;SDS011;43222;52.912;6.940;2023-07-22T10:07:15;13.63;;;6.38;;
57395;SDS011;43222;52.912;6.940;2023-07-22T10:09:42;8.77;;;5.22;;
57395;SDS011;43222;52.912;6.940;2023-07-22T10:12:08;7.95;;;4.72;;
57395;SDS011;43222;52.912;6.940;2023-07-22T10:14:34;7.50;;;4.85;;
57395;SDS011;43222;52.912;6.940;2023-07-22T10:17:01;8.55;;;5.13;;
57395;SDS011;43222;52.912;6.940;2023-07-22T10:19:28;8.50;;;5.55;;
57395;SDS011;43222;52.912;6.940;2023-07-22T10:21:54;8.32;;;4.82;;
57395;SDS011;43222;52.912;6.940;2023-07-22T10:24:21;8.38;;;4.28;;
57395;SDS011;43222;52.912;6.940;2023-07-22T10:26:47;6.95;;;3.38;;
57395;SDS011;43222;52.912;6.940;2023-07-22T10:29:16;7.70;;;3.13;;
57395;SDS011;43222;52.912;6.940;2023-07-22T10:31:42;7.78;;;3.67;;
57395;SDS011;43222;52.912;6.940;2023-07-22T10:34:08;6.88;;;3.53;;
57395;SDS011;43222;52.912;6.940;2023-07-22T10:36:35;7.88;;;3.72;;
57395;SDS011;43222;52.912;6.940;2023-07-22T10:39:01;6.60;;;3.53;;
57395;SDS011;43222;52.912;6.940;2023-07-22T10:41:27;7.32;;;3.10;;
57395;SDS011;43222;52.912;6.940;2023-07-22T10:43:55;5.97;;;3.10;;
57395;SDS011;43222;52.912;6.940;2023-07-22T10:46:37;6.07;;;3.10;;
57395;SDS011;43222;52.912;6.940;2023-07-22T10:51:38;6.68;;;3.72;;
57395;SDS011;43222;52.912;6.940;2023-07-22T10:54:13;5.43;;;3.55;;
57395;SDS011;43222;52.912;6.940;2023-07-22T10:56:43;7.72;;;4.60;;
57395;SDS011;43222;52.912;6.940;2023-07-22T10:59:10;6.97;;;3.70;;
57395;SDS011;43222;52.912;6.940;2023-07-22T11:01:36;8.02;;;4.38;;
57395;SDS011;43222;52.912;6.940;2023-07-22T11:04:07;8.90;;;4.43;;
57395;SDS011;43222;52.912;6.940;2023-07-22T11:06:36;8.13;;;4.43;;
57395;SDS011;43222;52.912;6.940;2023-07-22T11:09:02;6.60;;;4.28;;
57395;SDS011;43222;52.912;6.940;2023-07-22T11:11:37;7.15;;;4.97;;
57395;SDS011;43222;52.912;6.940;2023-07-22T11:14:16;8.80;;;5.13;;
57395;SDS011;43222;52.912;6.940;2023-07-22T11:16:44;8.40;;;5.47;;
57395;SDS011;43222;52.912;6.940;2023-07-22T11:19:10;7.78;;;5.38;;
57395;SDS011;43222;52.912;6.940;2023-07-22T11:21:38;9.38;;;5.88;;
57395;SDS011;43222;52.912;6.940;2023-07-22T11:24:05;8.63;;;5.40;;
57395;SDS011;43222;52.912;6.940;2023-07-22T11:26:32;8.27;;;5.85;;
57395;SDS011;43222;52.912;6.940;2023-07-22T11:29:02;9.18;;;6.15;;
57395;SDS011;43222;52.912;6.940;2023-07-22T11:31:35;8.15;;;5.60;;
57395;SDS011;43222;52.912;6.940;2023-07-22T11:34:19;8.25;;;6.30;;
57395;SDS011;43222;52.912;6.940;2023-07-22T11:36:46;8.55;;;5.57;;
57395;SDS011;43222;52.912;6.940;2023-07-22T11:39:14;9.52;;;6.18;;
57395;SDS011;43222;52.912;6.940;2023-07-22T11:41:42;9.48;;;7.07;;
57395;SDS011;43222;52.912;6.940;2023-07-22T11:44:09;14.23;;;8.05;;
57395;SDS011;43222;52.912;6.940;2023-07-22T11:51:55;10.95;;;6.80;;
57395;SDS011;43222;52.912;6.940;2023-07-22T11:54:21;9.00;;;6.72;;
57395;SDS011;43222;52.912;6.940;2023-07-22T11:56:48;10.73;;;7.97;;
57395;SDS011;43222;52.912;6.940;2023-07-22T11:59:14;10.88;;;7.53;;
57395;SDS011;43222;52.912;6.940;2023-07-22T12:01:42;12.48;;;9.57;;
57395;SDS011;43222;52.912;6.940;2023-07-22T12:04:14;12.02;;;9.45;;
57395;SDS011;43222;52.912;6.940;2023-07-22T12:06:41;14.23;;;9.40;;
57395;SDS011;43222;52.912;6.940;2023-07-22T12:09:08;11.88;;;8.52;;
57395;SDS011;43222;52.912;6.940;2023-07-22T12:11:35;11.57;;;8.40;;
57395;SDS011;43222;52.912;6.940;2023-07-22T12:14:06;10.52;;;6.57;;
57395;SDS011;43222;52.912;6.940;2023-07-22T12:16:32;11.25;;;6.97;;
57395;SDS011;43222;52.912;6.940;2023-07-22T12:19:00;9.95;;;7.28;;
57395;SDS011;43222;52.912;6.940;2023-07-22T12:21:27;11.65;;;8.32;;
57395;SDS011;43222;52.912;6.940;2023-07-22T12:23:53;11.82;;;8.32;;
57395;SDS011;43222;52.912;6.940;2023-07-22T12:26:19;11.73;;;9.25;;
57395;SDS011;43222;52.912;6.940;2023-07-22T12:28:45;10.38;;;7.95;;
57395;SDS011;43222;52.912;6.940;2023-07-22T12:31:11;13.40;;;7.13;;
57395;SDS011;43222;52.912;6.940;2023-07-22T12:33:38;9.02;;;6.43;;
57395;SDS011;43222;52.912;6.940;2023-07-22T12:36:04;9.95;;;6.85;;
57395;SDS011;43222;52.912;6.940;2023-07-22T12:38:30;9.93;;;6.65;;
57395;SDS011;43222;52.912;6.940;2023-07-22T12:40:57;10.10;;;6.43;;
57395;SDS011;43222;52.912;6.940;2023-07-22T12:43:23;8.88;;;6.60;;
57395;SDS011;43222;52.912;6.940;2023-07-22T12:45:49;8.35;;;6.47;;
57395;SDS011;43222;52.912;6.940;2023-07-22T12:48:16;9.63;;;6.97;;
57395;SDS011;43222;52.912;6.940;2023-07-22T12:50:42;11.07;;;7.60;;
57395;SDS011;43222;52.912;6.940;2023-07-22T12:53:09;12.40;;;6.97;;
57395;SDS011;43222;52.912;6.940;2023-07-22T12:55:35;13.45;;;7.50;;
57395;SDS011;43222;52.912;6.940;2023-07-22T12:58:01;10.45;;;7.65;;
57395;SDS011;43222;52.912;6.940;2023-07-22T13:00:27;9.90;;;7.45;;
57395;SDS011;43222;52.912;6.940;2023-07-22T13:02:54;10.15;;;6.80;;
57395;SDS011;43222;52.912;6.940;2023-07-22T13:05:21;10.40;;;6.55;;
57395;SDS011;43222;52.912;6.940;2023-07-22T13:07:48;11.10;;;7.72;;
57395;SDS011;43222;52.912;6.940;2023-07-22T13:10:14;9.95;;;7.30;;
57395;SDS011;43222;52.912;6.940;2023-07-22T13:12:43;13.00;;;7.47;;
57395;SDS011;43222;52.912;6.940;2023-07-22T13:15:09;10.82;;;7.63;;
57395;SDS011;43222;52.912;6.940;2023-07-22T13:17:35;13.63;;;7.40;;
57395;SDS011;43222;52.912;6.940;2023-07-22T13:20:02;12.35;;;7.40;;
57395;SDS011;43222;52.912;6.940;2023-07-22T13:22:32;13.30;;;7.40;;
57395;SDS011;43222;52.912;6.940;2023-07-22T13:24:58;10.73;;;6.78;;
57395;SDS011;43222;52.912;6.940;2023-07-22T13:27:24;10.63;;;5.72;;
57395;SDS011;43222;52.912;6.940;2023-07-22T13:29:50;9.52;;;5.22;;
57395;SDS011;43222;52.912;6.940;2023-07-22T13:32:16;7.97;;;5.18;;
57395;SDS011;43222;52.912;6.940;2023-07-22T13:34:42;9.68;;;5.18;;
57395;SDS011;43222;52.912;6.940;2023-07-22T13:37:08;8.20;;;4.88;;
57395;SDS011;43222;52.912;6.940;2023-07-22T13:39:34;9.20;;;5.30;;
57395;SDS011;43222;52.912;6.940;2023-07-22T13:42:00;8.73;;;5.13;;
57395;SDS011;43222;52.912;6.940;2023-07-22T13:44:26;12.77;;;5.60;;
57395;SDS011;43222;52.912;6.940;2023-07-22T13:46:53;7.32;;;5.28;;
57395;SDS011;43222;52.912;6.940;2023-07-22T13:49:19;10.80;;;5.53;;
57395;SDS011;43222;52.912;6.940;2023-07-22T13:51:45;7.95;;;5.43;;
57395;SDS011;43222;52.912;6.940;2023-07-22T13:54:11;8.15;;;5.28;;
57395;SDS011;43222;52.912;6.940;2023-07-22T13:56:37;9.75;;;5.30;;
57395;SDS011;43222;52.912;6.940;2023-07-22T13:59:03;8.23;;;5.50;;
57395;SDS011;43222;52.912;6.940;2023-07-22T14:01:33;9.73;;;5.90;;
57395;SDS011;43222;52.912;6.940;2023-07-22T14:03:59;8.63;;;6.15;;
57395;SDS011;43222;52.912;6.940;2023-07-22T14:06:25;8.60;;;5.38;;
57395;SDS011;43222;52.912;6.940;2023-07-22T14:08:51;10.15;;;5.88;;
57395;SDS011;43222;52.912;6.940;2023-07-22T14:11:17;8.63;;;6.40;;
57395;SDS011;43222;52.912;6.940;2023-07-22T14:13:43;9.07;;;6.40;;
57395;SDS011;43222;52.912;6.940;2023-07-22T14:16:11;9.05;;;6.50;;
57395;SDS011;43222;52.912;6.940;2023-07-22T14:18:37;9.48;;;6.25;;
57395;SDS011;43222;52.912;6.940;2023-07-22T14:21:03;10.63;;;6.60;;
57395;SDS011;43222;52.912;6.940;2023-07-22T14:23:29;8.48;;;6.40;;
57395;SDS011;43222;52.912;6.940;2023-07-22T14:25:55;8.60;;;6.43;;
57395;SDS011;43222;52.912;6.940;2023-07-22T14:28:21;8.18;;;6.40;;
57395;SDS011;43222;52.912;6.940;2023-07-22T14:30:48;9.48;;;6.32;;
57395;SDS011;43222;52.912;6.940;2023-07-22T14:33:14;8.98;;;6.30;;
57395;SDS011;43222;52.912;6.940;2023-07-22T14:35:40;10.48;;;7.13;;
57395;SDS011;43222;52.912;6.940;2023-07-22T14:38:06;13.00;;;6.70;;
57395;SDS011;43222;52.912;6.940;2023-07-22T14:40:32;10.98;;;7.10;;
57395;SDS011;43222;52.912;6.940;2023-07-22T14:42:58;9.73;;;6.97;;